sensor_id;sensor_type;location;lat;lon;timestamp;pressure;altitude;pressure_sealevel;temperature;humidity
70437;BME280;57877;39.750;-104.894;2023-04-01T00:00:16;83100.37;;;6.94;14.25
70437;BME280;57877;39.750;-104.894;2023-04-01T00:02:41;83104.45;;;6.09;14.56
70437;BME280;57877;39.750;-104.894;2023-04-01T00:05:08;83101.47;;;6.68;14.57
70437;BME280;57877;39.750;-104.894;2023-04-01T00:07:33;83104.69;;;6.29;14.91
70437;BME280;57877;39.750;-104.894;2023-04-01T00:09:59;83108.20;;;6.27;14.79
70437;BME280;57877;39.750;-104.894;2023-04-01T00:12:25;83112.33;;;6.54;14.96
70437;BME280;57877;39.750;-104.894;2023-04-01T00:14:51;83119.96;;;6.00;14.92
70437;BME280;57877;39.750;-104.894;2023-04-01T00:17:17;83128.16;;;6.34;14.58
70437;BME280;57877;39.750;-104.894;2023-04-01T00:19:43;83133.11;;;7.23;14.28
70437;BME280;57877;39.750;-104.894;2023-04-01T00:22:08;83139.90;;;7.40;14.19
70437;BME280;57877;39.750;-104.894;2023-04-01T00:24:35;83141.65;;;7.09;14.36
70437;BME280;57877;39.750;-104.894;2023-04-01T00:27:05;83145.19;;;8.01;13.79
70437;BME280;57877;39.750;-104.894;2023-04-01T00:29:26;83156.08;;;8.11;13.30
70437;BME280;57877;39.750;-104.894;2023-04-01T00:31:52;83161.24;;;7.24;13.93
70437;BME280;57877;39.750;-104.894;2023-04-01T00:34:18;83176.27;;;7.33;14.00
70437;BME280;57877;39.750;-104.894;2023-04-01T00:36:44;83173.34;;;6.59;14.48
70437;BME280;57877;39.750;-104.894;2023-04-01T00:39:10;83179.40;;;7.09;14.45
70437;BME280;57877;39.750;-104.894;2023-04-01T00:41:36;83181.45;;;7.42;14.06
70437;BME280;57877;39.750;-104.894;2023-04-01T00:46:28;83192.86;;;8.13;14.36
70437;BME280;57877;39.750;-104.894;2023-04-01T00:48:55;83209.76;;;7.53;14.85
70437;BME280;57877;39.750;-104.894;2023-04-01T00:51:23;83210.24;;;7.49;15.02
70437;BME280;57877;39.750;-104.894;2023-04-01T00:53:48;83214.16;;;6.55;15.46
70437;BME280;57877;39.750;-104.894;2023-04-01T00:56:14;83221.06;;;7.59;14.55
70437;BME280;57877;39.750;-104.894;2023-04-01T00:58:41;83218.73;;;6.38;14.97
70437;BME280;57877;39.750;-104.894;2023-04-01T01:01:04;83219.90;;;6.14;15.30
70437;BME280;57877;39.750;-104.894;2023-04-01T01:03:30;83225.53;;;5.89;15.41
70437;BME280;57877;39.750;-104.894;2023-04-01T01:06:08;83229.64;;;6.56;15.02
70437;BME280;57877;39.750;-104.894;2023-04-01T01:08:29;83229.25;;;6.51;14.94
70437;BME280;57877;39.750;-104.894;2023-04-01T01:10:50;83229.98;;;6.60;14.92
70437;BME280;57877;39.750;-104.894;2023-04-01T01:13:18;83227.70;;;5.89;15.17
70437;BME280;57877;39.750;-104.894;2023-04-01T01:15:44;83230.89;;;6.32;15.01
70437;BME280;57877;39.750;-104.894;2023-04-01T01:18:11;83236.42;;;5.89;15.17
70437;BME280;57877;39.750;-104.894;2023-04-01T01:20:41;83235.32;;;4.55;15.95
70437;BME280;57877;39.750;-104.894;2023-04-01T01:25:32;83251.22;;;4.39;16.88
70437;BME280;57877;39.750;-104.894;2023-04-01T01:27:56;83243.21;;;4.45;17.30
70437;BME280;57877;39.750;-104.894;2023-04-01T01:30:30;83260.85;;;4.69;16.96
70437;BME280;57877;39.750;-104.894;2023-04-01T01:32:56;83256.94;;;4.53;16.86
70437;BME280;57877;39.750;-104.894;2023-04-01T01:35:14;83271.89;;;4.53;16.63
70437;BME280;57877;39.750;-104.894;2023-04-01T01:37:33;83268.64;;;4.58;16.21
70437;BME280;57877;39.750;-104.894;2023-04-01T01:40:01;83275.61;;;5.02;16.49
70437;BME280;57877;39.750;-104.894;2023-04-01T01:42:26;83288.41;;;4.54;16.58
70437;BME280;57877;39.750;-104.894;2023-04-01T01:44:51;83287.79;;;5.20;16.33
70437;BME280;57877;39.750;-104.894;2023-04-01T01:47:17;83289.75;;;5.99;15.83
70437;BME280;57877;39.750;-104.894;2023-04-01T01:49:43;83276.22;;;5.44;15.52
70437;BME280;57877;39.750;-104.894;2023-04-01T01:52:08;83283.71;;;5.95;15.30
70437;BME280;57877;39.750;-104.894;2023-04-01T01:54:34;83308.98;;;5.08;15.82
70437;BME280;57877;39.750;-104.894;2023-04-01T01:57:06;83317.40;;;5.13;15.85
70437;BME280;57877;39.750;-104.894;2023-04-01T01:59:27;83320.14;;;5.22;15.67
70437;BME280;57877;39.750;-104.894;2023-04-01T02:01:52;83332.20;;;4.44;15.95
70437;BME280;57877;39.750;-104.894;2023-04-01T02:04:19;83333.49;;;4.36;16.36
70437;BME280;57877;39.750;-104.894;2023-04-01T02:06:49;83342.38;;;5.45;15.76
70437;BME280;57877;39.750;-104.894;2023-04-01T02:09:11;83339.42;;;5.02;15.91
70437;BME280;57877;39.750;-104.894;2023-04-01T02:11:40;83330.68;;;5.53;15.43
70437;BME280;57877;39.750;-104.894;2023-04-01T02:14:04;83335.51;;;5.82;15.05
70437;BME280;57877;39.750;-104.894;2023-04-01T02:16:31;83341.86;;;6.46;14.77
70437;BME280;57877;39.750;-104.894;2023-04-01T02:18:55;83347.75;;;5.37;15.37
70437;BME280;57877;39.750;-104.894;2023-04-01T02:21:21;83358.33;;;5.94;15.05
70437;BME280;57877;39.750;-104.894;2023-04-01T02:23:46;83358.12;;;6.63;14.72
70437;BME280;57877;39.750;-104.894;2023-04-01T02:26:12;83356.99;;;6.48;14.60
70437;BME280;57877;39.750;-104.894;2023-04-01T02:28:39;83361.14;;;6.88;14.37
70437;BME280;57877;39.750;-104.894;2023-04-01T02:31:04;83365.64;;;7.53;14.02
70437;BME280;57877;39.750;-104.894;2023-04-01T02:33:29;83380.18;;;7.18;13.96
70437;BME280;57877;39.750;-104.894;2023-04-01T02:35:55;83386.36;;;7.71;13.85
70437;BME280;57877;39.750;-104.894;2023-04-01T02:38:21;83391.23;;;7.60;13.98
70437;BME280;57877;39.750;-104.894;2023-04-01T02:40:49;83401.85;;;7.70;13.72
70437;BME280;57877;39.750;-104.894;2023-04-01T02:43:13;83409.29;;;7.31;13.84
70437;BME280;57877;39.750;-104.894;2023-04-01T02:45:39;83424.28;;;6.61;14.24
70437;BME280;57877;39.750;-104.894;2023-04-01T02:48:05;83423.95;;;6.84;14.00
70437;BME280;57877;39.750;-104.894;2023-04-01T02:50:30;83428.10;;;6.63;14.11
70437;BME280;57877;39.750;-104.894;2023-04-01T02:52:57;83435.29;;;5.95;14.70
70437;BME280;57877;39.750;-104.894;2023-04-01T02:55:23;83446.38;;;4.94;15.96
70437;BME280;57877;39.750;-104.894;2023-04-01T02:57:48;83452.72;;;5.09;16.00
70437;BME280;57877;39.750;-104.894;2023-04-01T03:00:16;83454.31;;;6.21;15.48
70437;BME280;57877;39.750;-104.894;2023-04-01T03:02:40;83458.67;;;6.20;15.73
70437;BME280;57877;39.750;-104.894;2023-04-01T03:05:07;83467.83;;;6.49;15.58
70437;BME280;57877;39.750;-104.894;2023-04-01T03:07:32;83474.51;;;6.34;15.85
70437;BME280;57877;39.750;-104.894;2023-04-01T03:09:58;83483.30;;;5.75;16.30
70437;BME280;57877;39.750;-104.894;2023-04-01T03:12:24;83483.64;;;6.28;15.93
70437;BME280;57877;39.750;-104.894;2023-04-01T03:14:50;83482.89;;;6.59;15.81
70437;BME280;57877;39.750;-104.894;2023-04-01T03:17:16;83484.82;;;7.06;15.63
70437;BME280;57877;39.750;-104.894;2023-04-01T03:19:42;83487.56;;;7.23;15.54
70437;BME280;57877;39.750;-104.894;2023-04-01T03:22:10;83492.04;;;7.24;15.41
70437;BME280;57877;39.750;-104.894;2023-04-01T03:24:34;83490.57;;;7.62;15.34
70437;BME280;57877;39.750;-104.894;2023-04-01T03:27:00;83492.01;;;7.48;15.27
70437;BME280;57877;39.750;-104.894;2023-04-01T03:29:26;83495.07;;;7.32;15.48
70437;BME280;57877;39.750;-104.894;2023-04-01T03:31:52;83497.41;;;7.13;15.45
70437;BME280;57877;39.750;-104.894;2023-04-01T03:34:18;83501.99;;;7.25;15.57
70437;BME280;57877;39.750;-104.894;2023-04-01T03:36:44;83503.26;;;6.44;16.03
70437;BME280;57877;39.750;-104.894;2023-04-01T03:39:10;83499.11;;;6.36;16.31
70437;BME280;57877;39.750;-104.894;2023-04-01T03:41:37;83496.56;;;6.74;16.29
70437;BME280;57877;39.750;-104.894;2023-04-01T03:44:02;83494.04;;;6.91;16.17
70437;BME280;57877;39.750;-104.894;2023-04-01T03:46:28;83491.64;;;6.68;16.32
70437;BME280;57877;39.750;-104.894;2023-04-01T03:48:54;83490.78;;;6.53;16.39
70437;BME280;57877;39.750;-104.894;2023-04-01T03:51:20;83497.61;;;6.05;16.86
70437;BME280;57877;39.750;-104.894;2023-04-01T03:53:46;83500.87;;;6.47;16.74
70437;BME280;57877;39.750;-104.894;2023-04-01T03:56:12;83506.16;;;6.73;16.45
70437;BME280;57877;39.750;-104.894;2023-04-01T03:58:38;83506.22;;;6.70;16.32
70437;BME280;57877;39.750;-104.894;2023-04-01T04:03:30;83522.58;;;6.06;16.78
70437;BME280;57877;39.750;-104.894;2023-04-01T04:05:56;83522.52;;;6.53;16.56
70437;BME280;57877;39.750;-104.894;2023-04-01T04:08:22;83524.55;;;6.47;16.63
70437;BME280;57877;39.750;-104.894;2023-04-01T04:13:14;83522.65;;;6.39;16.71
70437;BME280;57877;39.750;-104.894;2023-04-01T04:15:40;83518.47;;;6.64;16.73
70437;BME280;57877;39.750;-104.894;2023-04-01T04:18:06;83526.58;;;5.99;17.04
70437;BME280;57877;39.750;-104.894;2023-04-01T04:20:32;83534.89;;;5.99;17.35
70437;BME280;57877;39.750;-104.894;2023-04-01T04:22:58;83537.25;;;5.96;17.24
70437;BME280;57877;39.750;-104.894;2023-04-01T04:25:24;83531.46;;;6.42;17.11
70437;BME280;57877;39.750;-104.894;2023-04-01T04:27:50;83535.73;;;6.47;17.30
70437;BME280;57877;39.750;-104.894;2023-04-01T04:30:16;83537.51;;;5.85;17.72
70437;BME280;57877;39.750;-104.894;2023-04-01T04:32:42;83535.71;;;6.15;17.56
70437;BME280;57877;39.750;-104.894;2023-04-01T04:35:08;83532.82;;;6.29;17.79
70437;BME280;57877;39.750;-104.894;2023-04-01T04:37:33;83528.77;;;6.12;17.77
70437;BME280;57877;39.750;-104.894;2023-04-01T04:39:59;83525.39;;;6.11;17.78
70437;BME280;57877;39.750;-104.894;2023-04-01T04:42:25;83529.08;;;6.24;17.84
70437;BME280;57877;39.750;-104.894;2023-04-01T04:44:51;83534.96;;;5.55;18.15
70437;BME280;57877;39.750;-104.894;2023-04-01T04:47:17;83533.37;;;5.67;18.31
70437;BME280;57877;39.750;-104.894;2023-04-01T04:49:43;83535.61;;;5.74;18.03
70437;BME280;57877;39.750;-104.894;2023-04-01T04:52:09;83536.47;;;5.23;18.59
70437;BME280;57877;39.750;-104.894;2023-04-01T04:54:35;83538.89;;;5.98;18.03
70437;BME280;57877;39.750;-104.894;2023-04-01T04:57:01;83541.47;;;5.90;18.02
70437;BME280;57877;39.750;-104.894;2023-04-01T04:59:27;83549.70;;;6.09;17.86
70437;BME280;57877;39.750;-104.894;2023-04-01T05:01:53;83551.26;;;5.94;17.83
70437;BME280;57877;39.750;-104.894;2023-04-01T05:04:19;83556.62;;;6.37;17.43
70437;BME280;57877;39.750;-104.894;2023-04-01T05:06:45;83559.33;;;6.22;17.29
70437;BME280;57877;39.750;-104.894;2023-04-01T05:09:11;83569.74;;;6.41;17.29
70437;BME280;57877;39.750;-104.894;2023-04-01T05:11:37;83570.98;;;6.63;17.14
70437;BME280;57877;39.750;-104.894;2023-04-01T05:14:03;83576.24;;;6.67;17.26
70437;BME280;57877;39.750;-104.894;2023-04-01T05:16:29;83572.14;;;6.22;17.92
70437;BME280;57877;39.750;-104.894;2023-04-01T05:18:55;83572.32;;;6.33;17.91
70437;BME280;57877;39.750;-104.894;2023-04-01T05:21:21;83578.94;;;5.67;18.43
70437;BME280;57877;39.750;-104.894;2023-04-01T05:23:47;83581.80;;;5.44;18.74
70437;BME280;57877;39.750;-104.894;2023-04-01T05:26:14;83580.20;;;5.78;18.61
70437;BME280;57877;39.750;-104.894;2023-04-01T05:28:39;83578.71;;;5.59;18.56
70437;BME280;57877;39.750;-104.894;2023-04-01T05:31:06;83579.32;;;5.50;18.86
70437;BME280;57877;39.750;-104.894;2023-04-01T05:33:31;83588.63;;;5.72;18.66
70437;BME280;57877;39.750;-104.894;2023-04-01T05:38:23;83589.47;;;5.97;18.57
70437;BME280;57877;39.750;-104.894;2023-04-01T05:40:49;83593.42;;;5.57;18.97
70437;BME280;57877;39.750;-104.894;2023-04-01T05:43:15;83605.17;;;5.36;19.06
70437;BME280;57877;39.750;-104.894;2023-04-01T05:45:41;83609.06;;;5.28;19.32
70437;BME280;57877;39.750;-104.894;2023-04-01T05:48:07;83606.99;;;4.96;19.36
70437;BME280;57877;39.750;-104.894;2023-04-01T05:50:33;83603.81;;;5.47;19.12
70437;BME280;57877;39.750;-104.894;2023-04-01T05:52:59;83613.62;;;4.97;19.33
70437;BME280;57877;39.750;-104.894;2023-04-01T05:55:25;83612.89;;;5.16;19.09
70437;BME280;57877;39.750;-104.894;2023-04-01T05:57:51;83617.23;;;5.14;19.11
70437;BME280;57877;39.750;-104.894;2023-04-01T06:00:17;83616.75;;;5.24;19.05
70437;BME280;57877;39.750;-104.894;2023-04-01T06:02:43;83617.63;;;5.35;19.02
70437;BME280;57877;39.750;-104.894;2023-04-01T06:05:15;83619.34;;;5.50;18.92
70437;BME280;57877;39.750;-104.894;2023-04-01T06:07:35;83625.53;;;4.91;19.66
70437;BME280;57877;39.750;-104.894;2023-04-01T06:10:01;83634.37;;;4.84;20.05
70437;BME280;57877;39.750;-104.894;2023-04-01T06:12:38;83635.05;;;5.06;19.68
70437;BME280;57877;39.750;-104.894;2023-04-01T06:15:01;83640.49;;;4.90;19.55
70437;BME280;57877;39.750;-104.894;2023-04-01T06:17:26;83645.22;;;4.76;19.66
70437;BME280;57877;39.750;-104.894;2023-04-01T06:19:50;83654.94;;;4.97;19.52
70437;BME280;57877;39.750;-104.894;2023-04-01T06:24:50;83648.76;;;5.17;19.35
70437;BME280;57877;39.750;-104.894;2023-04-01T06:27:10;83646.36;;;5.28;19.30
70437;BME280;57877;39.750;-104.894;2023-04-01T06:34:35;83654.27;;;5.40;19.28
70437;BME280;57877;39.750;-104.894;2023-04-01T06:39:28;83658.57;;;4.35;20.25
70437;BME280;57877;39.750;-104.894;2023-04-01T06:44:14;83660.84;;;4.46;20.51
70437;BME280;57877;39.750;-104.894;2023-04-01T06:46:38;83654.33;;;4.69;20.63
70437;BME280;57877;39.750;-104.894;2023-04-01T06:49:07;83650.01;;;4.20;20.87
70437;BME280;57877;39.750;-104.894;2023-04-01T06:51:28;83644.70;;;3.80;20.70
70437;BME280;57877;39.750;-104.894;2023-04-01T06:53:54;83656.41;;;3.32;20.99
70437;BME280;57877;39.750;-104.894;2023-04-01T06:56:17;83652.81;;;4.06;20.55
70437;BME280;57877;39.750;-104.894;2023-04-01T06:58:43;83648.23;;;4.24;20.29
70437;BME280;57877;39.750;-104.894;2023-04-01T07:01:09;83653.62;;;4.59;20.03
70437;BME280;57877;39.750;-104.894;2023-04-01T07:03:35;83651.51;;;4.35;19.87
70437;BME280;57877;39.750;-104.894;2023-04-01T07:06:00;83655.42;;;4.06;20.28
70437;BME280;57877;39.750;-104.894;2023-04-01T07:08:26;83663.12;;;4.21;20.09
70437;BME280;57877;39.750;-104.894;2023-04-01T07:10:55;83664.70;;;4.43;20.03
70437;BME280;57877;39.750;-104.894;2023-04-01T07:13:20;83654.53;;;4.19;20.08
70437;BME280;57877;39.750;-104.894;2023-04-01T07:15:46;83653.21;;;4.72;19.58
70437;BME280;57877;39.750;-104.894;2023-04-01T07:18:12;83666.91;;;4.62;19.75
70437;BME280;57877;39.750;-104.894;2023-04-01T07:20:36;83671.16;;;4.59;19.91
70437;BME280;57877;39.750;-104.894;2023-04-01T07:23:02;83672.50;;;4.75;19.90
70437;BME280;57877;39.750;-104.894;2023-04-01T07:25:29;83667.91;;;4.89;19.35
70437;BME280;57877;39.750;-104.894;2023-04-01T07:27:54;83669.01;;;5.25;19.28
70437;BME280;57877;39.750;-104.894;2023-04-01T07:30:20;83677.55;;;5.59;19.11
70437;BME280;57877;39.750;-104.894;2023-04-01T07:32:47;83678.73;;;5.00;19.30
70437;BME280;57877;39.750;-104.894;2023-04-01T07:35:21;83674.60;;;4.99;19.60
70437;BME280;57877;39.750;-104.894;2023-04-01T07:37:42;83674.22;;;4.60;20.19
70437;BME280;57877;39.750;-104.894;2023-04-01T07:42:33;83673.89;;;5.34;19.64
70437;BME280;57877;39.750;-104.894;2023-04-01T07:45:01;83667.80;;;5.58;19.63
70437;BME280;57877;39.750;-104.894;2023-04-01T07:47:33;83665.27;;;5.92;19.07
70437;BME280;57877;39.750;-104.894;2023-04-01T07:49:54;83662.12;;;5.82;18.89
70437;BME280;57877;39.750;-104.894;2023-04-01T07:52:16;83655.56;;;5.40;19.18
70437;BME280;57877;39.750;-104.894;2023-04-01T07:54:42;83650.31;;;4.79;19.44
70437;BME280;57877;39.750;-104.894;2023-04-01T07:57:07;83651.47;;;5.33;19.04
70437;BME280;57877;39.750;-104.894;2023-04-01T07:59:32;83656.90;;;5.56;18.91
70437;BME280;57877;39.750;-104.894;2023-04-01T08:01:58;83658.54;;;6.04;18.58
70437;BME280;57877;39.750;-104.894;2023-04-01T08:04:30;83660.87;;;5.64;18.91
70437;BME280;57877;39.750;-104.894;2023-04-01T08:06:49;83660.22;;;5.71;18.78
70437;BME280;57877;39.750;-104.894;2023-04-01T08:09:17;83658.68;;;5.74;18.61
70437;BME280;57877;39.750;-104.894;2023-04-01T08:11:49;83657.53;;;5.82;18.40
70437;BME280;57877;39.750;-104.894;2023-04-01T08:14:11;83654.72;;;5.84;18.56
70437;BME280;57877;39.750;-104.894;2023-04-01T08:16:36;83652.73;;;5.87;18.60
70437;BME280;57877;39.750;-104.894;2023-04-01T08:19:03;83648.48;;;5.71;18.73
70437;BME280;57877;39.750;-104.894;2023-04-01T08:21:24;83653.25;;;5.60;19.05
70437;BME280;57877;39.750;-104.894;2023-04-01T08:23:51;83663.14;;;5.16;19.29
70437;BME280;57877;39.750;-104.894;2023-04-01T08:26:18;83661.56;;;5.30;19.14
70437;BME280;57877;39.750;-104.894;2023-04-01T08:28:43;83657.95;;;5.72;18.82
70437;BME280;57877;39.750;-104.894;2023-04-01T08:31:10;83659.73;;;5.44;18.96
70437;BME280;57877;39.750;-104.894;2023-04-01T08:33:32;83660.87;;;5.35;18.91
70437;BME280;57877;39.750;-104.894;2023-04-01T08:36:02;83655.70;;;5.37;19.04
70437;BME280;57877;39.750;-104.894;2023-04-01T08:38:29;83662.42;;;5.03;18.98
70437;BME280;57877;39.750;-104.894;2023-04-01T08:40:58;83664.38;;;4.89;19.54
70437;BME280;57877;39.750;-104.894;2023-04-01T08:43:22;83667.00;;;4.98;19.49
70437;BME280;57877;39.750;-104.894;2023-04-01T08:45:49;83666.76;;;4.98;19.34
70437;BME280;57877;39.750;-104.894;2023-04-01T08:50:43;83668.24;;;4.52;19.72
70437;BME280;57877;39.750;-104.894;2023-04-01T08:53:05;83677.70;;;4.66;19.75
70437;BME280;57877;39.750;-104.894;2023-04-01T08:55:31;83672.91;;;4.84;20.07
70437;BME280;57877;39.750;-104.894;2023-04-01T08:58:02;83678.78;;;4.18;20.48
70437;BME280;57877;39.750;-104.894;2023-04-01T09:00:23;83680.07;;;4.84;20.19
70437;BME280;57877;39.750;-104.894;2023-04-01T09:02:53;83679.50;;;4.27;20.74
70437;BME280;57877;39.750;-104.894;2023-04-01T09:24:48;83672.23;;;3.14;21.57
70437;BME280;57877;39.750;-104.894;2023-04-01T09:27:05;83680.40;;;2.45;21.81
70437;BME280;57877;39.750;-104.894;2023-04-01T09:34:31;83682.07;;;2.58;22.26
70437;BME280;57877;39.750;-104.894;2023-04-01T09:36:47;83666.21;;;1.67;22.81
70437;BME280;57877;39.750;-104.894;2023-04-01T09:39:22;83671.00;;;2.56;22.70
70437;BME280;57877;39.750;-104.894;2023-04-01T09:44:08;83664.87;;;2.44;22.31
70437;BME280;57877;39.750;-104.894;2023-04-01T10:11:00;83678.90;;;2.20;22.52
70437;BME280;57877;39.750;-104.894;2023-04-01T10:23:10;83682.56;;;2.27;22.58
70437;BME280;57877;39.750;-104.894;2023-04-01T10:25:30;83698.58;;;2.64;22.35
70437;BME280;57877;39.750;-104.894;2023-04-01T10:30:28;83708.09;;;1.34;23.73
70437;BME280;57877;39.750;-104.894;2023-04-01T10:32:53;83704.39;;;1.74;23.10
70437;BME280;57877;39.750;-104.894;2023-04-01T10:47:19;83699.47;;;1.34;23.96
70437;BME280;57877;39.750;-104.894;2023-04-01T10:49:46;83692.97;;;1.55;23.61
70437;BME280;57877;39.750;-104.894;2023-04-01T10:52:16;83692.88;;;2.00;23.45
70437;BME280;57877;39.750;-104.894;2023-04-01T10:54:40;83688.65;;;1.85;23.27
70437;BME280;57877;39.750;-104.894;2023-04-01T10:56:59;83686.67;;;1.86;23.20
70437;BME280;57877;39.750;-104.894;2023-04-01T10:59:36;83690.42;;;1.28;23.70
70437;BME280;57877;39.750;-104.894;2023-04-01T11:23:53;83696.47;;;1.35;23.22
70437;BME280;57877;39.750;-104.894;2023-04-01T11:26:10;83700.76;;;1.29;22.81
70437;BME280;57877;39.750;-104.894;2023-04-01T11:33:28;83694.04;;;1.96;21.98
70437;BME280;57877;39.750;-104.894;2023-04-01T11:35:55;83704.67;;;1.39;23.06
70437;BME280;57877;39.750;-104.894;2023-04-01T11:38:26;83701.66;;;1.70;22.76
70437;BME280;57877;39.750;-104.894;2023-04-01T11:40:45;83704.18;;;1.48;22.92
70437;BME280;57877;39.750;-104.894;2023-04-01T11:43:10;83689.76;;;1.92;22.89
70437;BME280;57877;39.750;-104.894;2023-04-01T11:45:36;83696.67;;;1.31;23.45
70437;BME280;57877;39.750;-104.894;2023-04-01T11:50:26;83689.37;;;1.29;23.64
70437;BME280;57877;39.750;-104.894;2023-04-01T11:52:59;83689.64;;;1.18;23.82
70437;BME280;57877;39.750;-104.894;2023-04-01T11:55:24;83681.27;;;1.62;23.82
70437;BME280;57877;39.750;-104.894;2023-04-01T11:57:49;83683.12;;;1.38;23.94
70437;BME280;57877;39.750;-104.894;2023-04-01T12:00:15;83685.06;;;0.82;24.27
70437;BME280;57877;39.750;-104.894;2023-04-01T12:02:34;83689.86;;;1.02;24.60
70437;BME280;57877;39.750;-104.894;2023-04-01T12:05:03;83693.66;;;1.23;24.32
70437;BME280;57877;39.750;-104.894;2023-04-01T12:07:25;83695.68;;;1.30;24.35
70437;BME280;57877;39.750;-104.894;2023-04-01T12:09:49;83705.15;;;1.35;24.21
70437;BME280;57877;39.750;-104.894;2023-04-01T12:12:17;83705.36;;;0.17;25.37
70437;BME280;57877;39.750;-104.894;2023-04-01T12:14:39;83703.86;;;0.66;25.13
70437;BME280;57877;39.750;-104.894;2023-04-01T12:17:08;83711.99;;;0.42;25.05
70437;BME280;57877;39.750;-104.894;2023-04-01T12:19:32;83713.43;;;0.81;24.66
70437;BME280;57877;39.750;-104.894;2023-04-01T12:22:03;83714.93;;;1.38;24.11
70437;BME280;57877;39.750;-104.894;2023-04-01T12:29:21;83717.63;;;1.05;23.84
70437;BME280;57877;39.750;-104.894;2023-04-01T12:31:42;83719.18;;;0.97;23.83
70437;BME280;57877;39.750;-104.894;2023-04-01T12:36:37;83731.38;;;0.77;24.13
70437;BME280;57877;39.750;-104.894;2023-04-01T12:39:00;83722.88;;;1.12;24.27
70437;BME280;57877;39.750;-104.894;2023-04-01T12:41:21;83716.55;;;0.75;24.49
70437;BME280;57877;39.750;-104.894;2023-04-01T12:46:13;83717.45;;;0.45;24.91
70437;BME280;57877;39.750;-104.894;2023-04-01T12:48:42;83722.03;;;0.50;24.80
70437;BME280;57877;39.750;-104.894;2023-04-01T12:51:14;83728.22;;;0.37;24.87
70437;BME280;57877;39.750;-104.894;2023-04-01T12:53:35;83725.59;;;0.15;25.06
70437;BME280;57877;39.750;-104.894;2023-04-01T12:55:49;83721.04;;;-0.04;25.65
70437;BME280;57877;39.750;-104.894;2023-04-01T13:00:52;83712.76;;;-0.22;26.00
70437;BME280;57877;39.750;-104.894;2023-04-01T13:03:16;83706.44;;;-0.59;26.68
70437;BME280;57877;39.750;-104.894;2023-04-01T13:05:43;83712.74;;;-0.39;26.40
70437;BME280;57877;39.750;-104.894;2023-04-01T13:08:04;83711.67;;;-0.71;26.95
70437;BME280;57877;39.750;-104.894;2023-04-01T13:10:32;83710.13;;;-0.18;26.35
70437;BME280;57877;39.750;-104.894;2023-04-01T13:15:20;83707.80;;;0.30;25.70
70437;BME280;57877;39.750;-104.894;2023-04-01T13:17:43;83713.60;;;0.51;25.18
70437;BME280;57877;39.750;-104.894;2023-04-01T13:20:11;83719.38;;;0.42;24.93
70437;BME280;57877;39.750;-104.894;2023-04-01T13:22:41;83721.14;;;0.24;25.00
70437;BME280;57877;39.750;-104.894;2023-04-01T13:24:56;83724.01;;;0.23;24.93
70437;BME280;57877;39.750;-104.894;2023-04-01T13:27:21;83729.15;;;1.13;24.41
70437;BME280;57877;39.750;-104.894;2023-04-01T13:29:57;83737.91;;;0.68;24.40
70437;BME280;57877;39.750;-104.894;2023-04-01T13:32:18;83741.70;;;0.63;24.77
70437;BME280;57877;39.750;-104.894;2023-04-01T13:34:42;83744.11;;;1.26;23.95
70437;BME280;57877;39.750;-104.894;2023-04-01T13:39:40;83741.76;;;2.67;22.20
70437;BME280;57877;39.750;-104.894;2023-04-01T13:42:01;83739.10;;;2.92;21.83
70437;BME280;57877;39.750;-104.894;2023-04-01T13:44:20;83736.21;;;3.05;21.80
70437;BME280;57877;39.750;-104.894;2023-04-01T13:46:57;83731.74;;;2.72;22.01
70437;BME280;57877;39.750;-104.894;2023-04-01T13:49:22;83732.69;;;3.28;21.46
70437;BME280;57877;39.750;-104.894;2023-04-01T13:54:11;83729.07;;;3.76;20.88
70437;BME280;57877;39.750;-104.894;2023-04-01T13:56:34;83729.09;;;3.98;20.05
70437;BME280;57877;39.750;-104.894;2023-04-01T13:59:02;83723.60;;;3.95;20.20
70437;BME280;57877;39.750;-104.894;2023-04-01T14:01:25;83717.20;;;4.63;19.80
70437;BME280;57877;39.750;-104.894;2023-04-01T14:06:19;83726.51;;;5.59;18.51
70437;BME280;57877;39.750;-104.894;2023-04-01T14:11:13;83727.43;;;6.12;17.87
70437;BME280;57877;39.750;-104.894;2023-04-01T14:13:34;83719.31;;;7.86;16.57
70437;BME280;57877;39.750;-104.894;2023-04-01T14:16:07;83714.74;;;8.36;16.09
70437;BME280;57877;39.750;-104.894;2023-04-01T14:18:37;83717.34;;;8.42;15.75
70437;BME280;57877;39.750;-104.894;2023-04-01T14:20:53;83712.70;;;8.81;15.17
70437;BME280;57877;39.750;-104.894;2023-04-01T14:25:50;83703.75;;;8.90;15.24
70437;BME280;57877;39.750;-104.894;2023-04-01T14:28:14;83708.92;;;9.96;14.30
70437;BME280;57877;39.750;-104.894;2023-04-01T14:33:02;83685.56;;;10.07;14.16
70437;BME280;57877;39.750;-104.894;2023-04-01T14:35:32;83700.22;;;10.34;13.90
70437;BME280;57877;39.750;-104.894;2023-04-01T14:38:00;83705.16;;;11.11;13.43
70437;BME280;57877;39.750;-104.894;2023-04-01T14:40:24;83706.13;;;11.23;13.33
70437;BME280;57877;39.750;-104.894;2023-04-01T14:50:05;83686.23;;;13.11;11.50
70437;BME280;57877;39.750;-104.894;2023-04-01T14:52:28;83691.24;;;12.19;11.77
70437;BME280;57877;39.750;-104.894;2023-04-01T14:54:51;83688.88;;;12.97;11.45
70437;BME280;57877;39.750;-104.894;2023-04-01T14:57:23;83686.31;;;14.02;11.14
70437;BME280;57877;39.750;-104.894;2023-04-01T14:59:48;83688.99;;;15.31;10.45
70437;BME280;57877;39.750;-104.894;2023-04-01T15:02:18;83691.05;;;16.13;9.92
70437;BME280;57877;39.750;-104.894;2023-04-01T15:07:15;83696.03;;;16.35;9.19
70437;BME280;57877;39.750;-104.894;2023-04-01T15:09:31;83689.95;;;15.92;9.61
70437;BME280;57877;39.750;-104.894;2023-04-01T15:12:00;83687.25;;;15.83;9.48
70437;BME280;57877;39.750;-104.894;2023-04-01T15:14:28;83683.42;;;16.16;9.52
70437;BME280;57877;39.750;-104.894;2023-04-01T15:16:52;83682.43;;;15.49;9.92
70437;BME280;57877;39.750;-104.894;2023-04-01T15:19:17;83681.89;;;16.78;9.53
70437;BME280;57877;39.750;-104.894;2023-04-01T15:21:48;83681.66;;;17.09;9.11
70437;BME280;57877;39.750;-104.894;2023-04-01T15:24:07;83683.42;;;18.05;8.43